sensor_id;sensor_type;location;lat;lon;timestamp;P1;durP1;ratioP1;P2;durP2;ratioP2
64208;SDS011;50527;52.414;13.226;2022-08-04T00:00:12;4.88;;;1.50;;
64208;SDS011;50527;52.414;13.226;2022-08-04T00:02:42;4.90;;;1.50;;
64208;SDS011;50527;52.414;13.226;2022-08-04T00:08:18;5.97;;;1.50;;
64208;SDS011;50527;52.414;13.226;2022-08-04T00:10:53;5.60;;;1.27;;
64208;SDS011;50527;52.414;13.226;2022-08-04T00:13:23;3.35;;;1.48;;
64208;SDS011;50527;52.414;13.226;2022-08-04T00:15:51;6.70;;;1.30;;
64208;SDS011;50527;52.414;13.226;2022-08-04T00:18:18;3.92;;;1.33;;
64208;SDS011;50527;52.414;13.226;2022-08-04T00:20:49;5.75;;;1.70;;
64208;SDS011;50527;52.414;13.226;2022-08-04T00:23:21;5.85;;;1.25;;
64208;SDS011;50527;52.414;13.226;2022-08-04T00:25:47;3.00;;;1.23;;
64208;SDS011;50527;52.414;13.226;2022-08-04T00:28:13;5.30;;;1.50;;
64208;SDS011;50527;52.414;13.226;2022-08-04T00:30:40;7.60;;;1.55;;
64208;SDS011;50527;52.414;13.226;2022-08-04T00:33:06;4.05;;;1.40;;
64208;SDS011;50527;52.414;13.226;2022-08-04T00:35:32;3.80;;;1.60;;
64208;SDS011;50527;52.414;13.226;2022-08-04T00:37:58;3.88;;;1.63;;
64208;SDS011;50527;52.414;13.226;2022-08-04T00:40:30;5.13;;;1.30;;
64208;SDS011;50527;52.414;13.226;2022-08-04T00:43:12;6.63;;;1.35;;
64208;SDS011;50527;52.414;13.226;2022-08-04T00:45:59;8.07;;;1.70;;
64208;SDS011;50527;52.414;13.226;2022-08-04T00:51:21;3.85;;;1.40;;
64208;SDS011;50527;52.414;13.226;2022-08-04T00:54:11;10.18;;;1.48;;
64208;SDS011;50527;52.414;13.226;2022-08-04T00:57:10;3.38;;;1.33;;
64208;SDS011;50527;52.414;13.226;2022-08-04T01:00:13;3.33;;;1.25;;
64208;SDS011;50527;52.414;13.226;2022-08-04T01:05:34;3.55;;;1.48;;
64208;SDS011;50527;52.414;13.226;2022-08-04T01:11:22;3.05;;;1.33;;
64208;SDS011;50527;52.414;13.226;2022-08-04T01:14:11;5.38;;;1.67;;
64208;SDS011;50527;52.414;13.226;2022-08-04T01:17:13;3.78;;;1.35;;
64208;SDS011;50527;52.414;13.226;2022-08-04T01:19:53;4.20;;;1.50;;
64208;SDS011;50527;52.414;13.226;2022-08-04T01:30:44;3.28;;;1.48;;
64208;SDS011;50527;52.414;13.226;2022-08-04T01:33:14;4.97;;;1.50;;
64208;SDS011;50527;52.414;13.226;2022-08-04T01:35:50;4.20;;;1.50;;
64208;SDS011;50527;52.414;13.226;2022-08-04T01:38:23;4.05;;;1.50;;
64208;SDS011;50527;52.414;13.226;2022-08-04T01:40:53;4.13;;;1.40;;
64208;SDS011;50527;52.414;13.226;2022-08-04T01:43:23;4.00;;;1.40;;
64208;SDS011;50527;52.414;13.226;2022-08-04T01:45:49;4.20;;;1.33;;
64208;SDS011;50527;52.414;13.226;2022-08-04T01:48:22;3.40;;;1.23;;
64208;SDS011;50527;52.414;13.226;2022-08-04T01:50:49;3.42;;;1.30;;
64208;SDS011;50527;52.414;13.226;2022-08-04T01:53:17;6.63;;;1.48;;
64208;SDS011;50527;52.414;13.226;2022-08-04T01:55:45;6.25;;;1.80;;
64208;SDS011;50527;52.414;13.226;2022-08-04T01:58:17;2.97;;;1.40;;
64208;SDS011;50527;52.414;13.226;2022-08-04T02:00:44;3.90;;;1.52;;
64208;SDS011;50527;52.414;13.226;2022-08-04T02:03:19;7.32;;;1.50;;
64208;SDS011;50527;52.414;13.226;2022-08-04T02:05:46;5.20;;;1.35;;
64208;SDS011;50527;52.414;13.226;2022-08-04T02:08:18;5.07;;;1.40;;
64208;SDS011;50527;52.414;13.226;2022-08-04T02:13:31;4.60;;;1.42;;
64208;SDS011;50527;52.414;13.226;2022-08-04T02:19:16;5.72;;;1.50;;
64208;SDS011;50527;52.414;13.226;2022-08-04T02:22:11;5.05;;;1.30;;
64208;SDS011;50527;52.414;13.226;2022-08-04T02:24:42;3.50;;;1.48;;
64208;SDS011;50527;52.414;13.226;2022-08-04T02:27:12;3.45;;;1.60;;
64208;SDS011;50527;52.414;13.226;2022-08-04T02:29:47;4.65;;;1.40;;
64208;SDS011;50527;52.414;13.226;2022-08-04T02:32:20;2.63;;;1.50;;
64208;SDS011;50527;52.414;13.226;2022-08-04T02:37:22;4.70;;;1.45;;
64208;SDS011;50527;52.414;13.226;2022-08-04T02:39:51;6.07;;;1.35;;
64208;SDS011;50527;52.414;13.226;2022-08-04T02:42:18;3.90;;;1.50;;
64208;SDS011;50527;52.414;13.226;2022-08-04T02:44:48;2.28;;;1.50;;
64208;SDS011;50527;52.414;13.226;2022-08-04T02:47:19;4.35;;;1.55;;
64208;SDS011;50527;52.414;13.226;2022-08-04T02:49:45;4.50;;;1.40;;
64208;SDS011;50527;52.414;13.226;2022-08-04T02:52:11;7.78;;;1.60;;
64208;SDS011;50527;52.414;13.226;2022-08-04T02:54:38;3.05;;;1.40;;
64208;SDS011;50527;52.414;13.226;2022-08-04T02:57:09;3.05;;;1.33;;
64208;SDS011;50527;52.414;13.226;2022-08-04T03:11:21;4.03;;;1.30;;
64208;SDS011;50527;52.414;13.226;2022-08-04T03:14:20;3.63;;;1.50;;
64208;SDS011;50527;52.414;13.226;2022-08-04T03:17:10;5.03;;;1.38;;
64208;SDS011;50527;52.414;13.226;2022-08-04T03:20:12;10.60;;;1.60;;
64208;SDS011;50527;52.414;13.226;2022-08-04T03:26:06;5.57;;;1.65;;
64208;SDS011;50527;52.414;13.226;2022-08-04T03:29:08;4.00;;;1.45;;
64208;SDS011;50527;52.414;13.226;2022-08-04T03:34:53;3.17;;;1.35;;
64208;SDS011;50527;52.414;13.226;2022-08-04T03:48:44;4.28;;;1.48;;
64208;SDS011;50527;52.414;13.226;2022-08-04T03:51:41;5.38;;;1.40;;
64208;SDS011;50527;52.414;13.226;2022-08-04T03:57:57;4.43;;;1.38;;
64208;SDS011;50527;52.414;13.226;2022-08-04T04:00:39;3.78;;;1.58;;
64208;SDS011;50527;52.414;13.226;2022-08-04T04:11:45;4.13;;;1.48;;
64208;SDS011;50527;52.414;13.226;2022-08-04T04:17:33;3.55;;;1.90;;
64208;SDS011;50527;52.414;13.226;2022-08-04T04:20:24;3.70;;;1.63;;
64208;SDS011;50527;52.414;13.226;2022-08-04T04:23:10;4.32;;;1.55;;
64208;SDS011;50527;52.414;13.226;2022-08-04T04:25:58;5.05;;;1.80;;
64208;SDS011;50527;52.414;13.226;2022-08-04T04:28:39;5.90;;;1.85;;
64208;SDS011;50527;52.414;13.226;2022-08-04T04:31:32;4.50;;;1.75;;
64208;SDS011;50527;52.414;13.226;2022-08-04T04:34:34;3.67;;;1.70;;
64208;SDS011;50527;52.414;13.226;2022-08-04T04:39:42;4.57;;;1.80;;
64208;SDS011;50527;52.414;13.226;2022-08-04T04:42:33;17.85;;;2.03;;
64208;SDS011;50527;52.414;13.226;2022-08-04T04:45:23;6.05;;;1.80;;
64208;SDS011;50527;52.414;13.226;2022-08-04T04:51:05;8.05;;;1.80;;
64208;SDS011;50527;52.414;13.226;2022-08-04T04:53:55;3.15;;;1.50;;
64208;SDS011;50527;52.414;13.226;2022-08-04T04:56:46;7.28;;;2.00;;
64208;SDS011;50527;52.414;13.226;2022-08-04T04:59:26;2.58;;;1.50;;
64208;SDS011;50527;52.414;13.226;2022-08-04T05:02:06;4.95;;;1.67;;
64208;SDS011;50527;52.414;13.226;2022-08-04T05:04:58;5.10;;;1.73;;
64208;SDS011;50527;52.414;13.226;2022-08-04T05:15:36;7.25;;;1.75;;
64208;SDS011;50527;52.414;13.226;2022-08-04T05:18:07;4.05;;;1.75;;
64208;SDS011;50527;52.414;13.226;2022-08-04T05:23:10;4.53;;;1.60;;
64208;SDS011;50527;52.414;13.226;2022-08-04T05:31:28;3.03;;;1.50;;
64208;SDS011;50527;52.414;13.226;2022-08-04T05:34:14;3.20;;;1.60;;
64208;SDS011;50527;52.414;13.226;2022-08-04T05:36:51;4.90;;;1.80;;
64208;SDS011;50527;52.414;13.226;2022-08-04T05:39:22;3.38;;;1.70;;
64208;SDS011;50527;52.414;13.226;2022-08-04T05:41:50;3.58;;;1.40;;
64208;SDS011;50527;52.414;13.226;2022-08-04T05:44:17;4.18;;;1.73;;
64208;SDS011;50527;52.414;13.226;2022-08-04T05:46:46;3.25;;;1.70;;
64208;SDS011;50527;52.414;13.226;2022-08-04T05:49:13;6.20;;;1.88;;
64208;SDS011;50527;52.414;13.226;2022-08-04T05:51:41;4.03;;;1.70;;
64208;SDS011;50527;52.414;13.226;2022-08-04T05:54:08;2.67;;;1.58;;
64208;SDS011;50527;52.414;13.226;2022-08-04T05:56:34;7.55;;;1.98;;
64208;SDS011;50527;52.414;13.226;2022-08-04T05:59:02;5.57;;;1.85;;
64208;SDS011;50527;52.414;13.226;2022-08-04T06:01:29;10.57;;;2.22;;
64208;SDS011;50527;52.414;13.226;2022-08-04T06:03:56;3.15;;;1.73;;
64208;SDS011;50527;52.414;13.226;2022-08-04T06:06:24;5.72;;;2.10;;
64208;SDS011;50527;52.414;13.226;2022-08-04T06:08:50;5.65;;;1.80;;
64208;SDS011;50527;52.414;13.226;2022-08-04T06:11:16;5.32;;;2.17;;
64208;SDS011;50527;52.414;13.226;2022-08-04T06:13:44;6.78;;;1.92;;
64208;SDS011;50527;52.414;13.226;2022-08-04T06:16:15;7.95;;;1.95;;
64208;SDS011;50527;52.414;13.226;2022-08-04T06:18:44;7.20;;;1.75;;
64208;SDS011;50527;52.414;13.226;2022-08-04T06:21:13;4.60;;;1.80;;
64208;SDS011;50527;52.414;13.226;2022-08-04T06:23:41;5.85;;;1.70;;
64208;SDS011;50527;52.414;13.226;2022-08-04T06:26:08;6.35;;;2.10;;
64208;SDS011;50527;52.414;13.226;2022-08-04T06:28:40;5.82;;;1.75;;
64208;SDS011;50527;52.414;13.226;2022-08-04T06:31:07;4.93;;;1.48;;
64208;SDS011;50527;52.414;13.226;2022-08-04T06:33:33;3.80;;;1.50;;
64208;SDS011;50527;52.414;13.226;2022-08-04T06:36:02;4.75;;;1.40;;
64208;SDS011;50527;52.414;13.226;2022-08-04T06:38:31;8.57;;;1.80;;
64208;SDS011;50527;52.414;13.226;2022-08-04T06:40:59;4.53;;;1.48;;
64208;SDS011;50527;52.414;13.226;2022-08-04T06:43:27;8.57;;;1.65;;
64208;SDS011;50527;52.414;13.226;2022-08-04T06:45:55;4.97;;;2.17;;
64208;SDS011;50527;52.414;13.226;2022-08-04T06:48:23;2.88;;;1.35;;
64208;SDS011;50527;52.414;13.226;2022-08-04T06:50:50;5.10;;;1.40;;
64208;SDS011;50527;52.414;13.226;2022-08-04T06:53:16;2.58;;;1.33;;
64208;SDS011;50527;52.414;13.226;2022-08-04T06:55:43;4.30;;;1.20;;
64208;SDS011;50527;52.414;13.226;2022-08-04T06:58:10;10.82;;;1.40;;
64208;SDS011;50527;52.414;13.226;2022-08-04T07:00:38;3.47;;;1.13;;
64208;SDS011;50527;52.414;13.226;2022-08-04T07:03:05;1.80;;;1.00;;
64208;SDS011;50527;52.414;13.226;2022-08-04T07:05:31;5.78;;;1.08;;
64208;SDS011;50527;52.414;13.226;2022-08-04T07:07:58;5.57;;;1.38;;
64208;SDS011;50527;52.414;13.226;2022-08-04T07:10:24;4.35;;;1.20;;
64208;SDS011;50527;52.414;13.226;2022-08-04T07:12:54;7.60;;;1.20;;
64208;SDS011;50527;52.414;13.226;2022-08-04T07:15:24;3.60;;;1.20;;
64208;SDS011;50527;52.414;13.226;2022-08-04T07:17:50;4.97;;;1.50;;
64208;SDS011;50527;52.414;13.226;2022-08-04T07:20:16;4.97;;;1.25;;
64208;SDS011;50527;52.414;13.226;2022-08-04T07:22:43;3.63;;;1.20;;
64208;SDS011;50527;52.414;13.226;2022-08-04T07:25:11;6.95;;;1.33;;
64208;SDS011;50527;52.414;13.226;2022-08-04T07:27:39;3.70;;;1.30;;
64208;SDS011;50527;52.414;13.226;2022-08-04T07:30:06;4.25;;;1.20;;
64208;SDS011;50527;52.414;13.226;2022-08-04T07:32:32;2.70;;;1.20;;
64208;SDS011;50527;52.414;13.226;2022-08-04T07:34:58;4.95;;;1.25;;
64208;SDS011;50527;52.414;13.226;2022-08-04T07:37:24;4.35;;;1.13;;
64208;SDS011;50527;52.414;13.226;2022-08-04T07:39:49;3.72;;;1.20;;
64208;SDS011;50527;52.414;13.226;2022-08-04T07:42:18;5.40;;;1.13;;
64208;SDS011;50527;52.414;13.226;2022-08-04T07:44:45;3.85;;;1.10;;
64208;SDS011;50527;52.414;13.226;2022-08-04T07:47:11;5.80;;;1.35;;
64208;SDS011;50527;52.414;13.226;2022-08-04T07:49:36;5.22;;;1.02;;
64208;SDS011;50527;52.414;13.226;2022-08-04T07:52:03;4.15;;;1.05;;
64208;SDS011;50527;52.414;13.226;2022-08-04T07:54:31;3.50;;;1.55;;
64208;SDS011;50527;52.414;13.226;2022-08-04T07:56:57;1.88;;;1.10;;
64208;SDS011;50527;52.414;13.226;2022-08-04T07:59:23;3.22;;;0.80;;
64208;SDS011;50527;52.414;13.226;2022-08-04T08:01:48;2.88;;;1.13;;
64208;SDS011;50527;52.414;13.226;2022-08-04T08:04:15;3.00;;;1.08;;
64208;SDS011;50527;52.414;13.226;2022-08-04T08:06:42;4.45;;;1.00;;
64208;SDS011;50527;52.414;13.226;2022-08-04T08:09:11;4.47;;;0.95;;
64208;SDS011;50527;52.414;13.226;2022-08-04T08:11:41;2.80;;;1.00;;
64208;SDS011;50527;52.414;13.226;2022-08-04T08:14:08;3.00;;;1.10;;
64208;SDS011;50527;52.414;13.226;2022-08-04T08:16:34;8.48;;;1.00;;
64208;SDS011;50527;52.414;13.226;2022-08-04T08:19:00;4.53;;;1.02;;
64208;SDS011;50527;52.414;13.226;2022-08-04T08:21:26;1.65;;;0.90;;
64208;SDS011;50527;52.414;13.226;2022-08-04T08:23:52;6.07;;;0.73;;
64208;SDS011;50527;52.414;13.226;2022-08-04T08:26:17;4.28;;;0.90;;
64208;SDS011;50527;52.414;13.226;2022-08-04T08:28:43;4.93;;;1.08;;
64208;SDS011;50527;52.414;13.226;2022-08-04T08:31:09;4.63;;;1.10;;
64208;SDS011;50527;52.414;13.226;2022-08-04T08:33:34;2.22;;;0.77;;
64208;SDS011;50527;52.414;13.226;2022-08-04T08:36:02;6.38;;;0.80;;
64208;SDS011;50527;52.414;13.226;2022-08-04T08:41:20;1.75;;;0.70;;
64208;SDS011;50527;52.414;13.226;2022-08-04T08:49:48;3.10;;;0.90;;
64208;SDS011;50527;52.414;13.226;2022-08-04T08:52:30;3.35;;;0.80;;
64208;SDS011;50527;52.414;13.226;2022-08-04T08:55:12;3.15;;;0.90;;
64208;SDS011;50527;52.414;13.226;2022-08-04T09:03:21;2.27;;;0.90;;
64208;SDS011;50527;52.414;13.226;2022-08-04T09:06:08;8.85;;;0.80;;
64208;SDS011;50527;52.414;13.226;2022-08-04T09:09:00;6.07;;;0.88;;
64208;SDS011;50527;52.414;13.226;2022-08-04T09:11:56;2.38;;;0.80;;
64208;SDS011;50527;52.414;13.226;2022-08-04T09:14:36;3.95;;;0.93;;
64208;SDS011;50527;52.414;13.226;2022-08-04T09:17:21;3.08;;;0.80;;
64208;SDS011;50527;52.414;13.226;2022-08-04T09:19:58;2.55;;;0.90;;
64208;SDS011;50527;52.414;13.226;2022-08-04T09:22:48;1.30;;;0.68;;
64208;SDS011;50527;52.414;13.226;2022-08-04T09:25:27;3.92;;;0.60;;
64208;SDS011;50527;52.414;13.226;2022-08-04T09:28:09;4.18;;;0.65;;
64208;SDS011;50527;52.414;13.226;2022-08-04T09:30:56;4.20;;;0.93;;
64208;SDS011;50527;52.414;13.226;2022-08-04T09:33:33;1.40;;;0.60;;
64208;SDS011;50527;52.414;13.226;2022-08-04T09:36:14;4.53;;;0.52;;
64208;SDS011;50527;52.414;13.226;2022-08-04T09:44:37;5.63;;;0.70;;
64208;SDS011;50527;52.414;13.226;2022-08-04T09:47:30;5.10;;;0.85;;
64208;SDS011;50527;52.414;13.226;2022-08-04T09:58:04;2.53;;;0.60;;
64208;SDS011;50527;52.414;13.226;2022-08-04T10:00:48;1.42;;;0.40;;
64208;SDS011;50527;52.414;13.226;2022-08-04T10:03:19;2.22;;;0.38;;
64208;SDS011;50527;52.414;13.226;2022-08-04T10:11:32;2.70;;;0.32;;
64208;SDS011;50527;52.414;13.226;2022-08-04T10:14:27;1.55;;;0.40;;
64208;SDS011;50527;52.414;13.226;2022-08-04T10:17:25;2.58;;;0.50;;
64208;SDS011;50527;52.414;13.226;2022-08-04T10:22:36;0.55;;;0.30;;
64208;SDS011;50527;52.414;13.226;2022-08-04T10:27:47;1.52;;;0.40;;
64208;SDS011;50527;52.414;13.226;2022-08-04T10:30:18;4.38;;;0.60;;
64208;SDS011;50527;52.414;13.226;2022-08-04T10:33:08;3.15;;;0.52;;
64208;SDS011;50527;52.414;13.226;2022-08-04T10:35:50;2.60;;;0.50;;
64208;SDS011;50527;52.414;13.226;2022-08-04T10:46:46;0.88;;;0.50;;
64208;SDS011;50527;52.414;13.226;2022-08-04T10:49:23;1.60;;;0.60;;
64208;SDS011;50527;52.414;13.226;2022-08-04T10:52:02;4.68;;;0.80;;
64208;SDS011;50527;52.414;13.226;2022-08-04T10:54:46;2.72;;;0.80;;
64208;SDS011;50527;52.414;13.226;2022-08-04T11:00:24;2.38;;;0.80;;
64208;SDS011;50527;52.414;13.226;2022-08-04T11:02:57;3.45;;;0.90;;
64208;SDS011;50527;52.414;13.226;2022-08-04T11:05:40;1.10;;;0.63;;
64208;SDS011;50527;52.414;13.226;2022-08-04T11:08:25;2.50;;;0.70;;
64208;SDS011;50527;52.414;13.226;2022-08-04T11:13:48;4.65;;;0.80;;
64208;SDS011;50527;52.414;13.226;2022-08-04T11:16:25;1.77;;;0.60;;
64208;SDS011;50527;52.414;13.226;2022-08-04T11:19:01;1.13;;;0.60;;
64208;SDS011;50527;52.414;13.226;2022-08-04T11:21:53;1.75;;;0.40;;
64208;SDS011;50527;52.414;13.226;2022-08-04T11:24:23;2.45;;;0.70;;
64208;SDS011;50527;52.414;13.226;2022-08-04T11:27:03;3.42;;;0.60;;
64208;SDS011;50527;52.414;13.226;2022-08-04T11:32:31;2.55;;;0.60;;
64208;SDS011;50527;52.414;13.226;2022-08-04T11:35:08;2.58;;;0.50;;
64208;SDS011;50527;52.414;13.226;2022-08-04T11:37:42;1.42;;;0.60;;
64208;SDS011;50527;52.414;13.226;2022-08-04T11:40:23;1.00;;;0.60;;
64208;SDS011;50527;52.414;13.226;2022-08-04T11:42:54;2.85;;;0.50;;
64208;SDS011;50527;52.414;13.226;2022-08-04T11:45:33;2.22;;;0.60;;
64208;SDS011;50527;52.414;13.226;2022-08-04T11:48:08;4.20;;;0.63;;
64208;SDS011;50527;52.414;13.226;2022-08-04T11:50:43;1.10;;;0.50;;
64208;SDS011;50527;52.414;13.226;2022-08-04T11:53:15;1.33;;;0.45;;
64208;SDS011;50527;52.414;13.226;2022-08-04T11:55:44;1.15;;;0.47;;
64208;SDS011;50527;52.414;13.226;2022-08-04T11:58:13;3.30;;;0.80;;
64208;SDS011;50527;52.414;13.226;2022-08-04T12:00:41;1.27;;;0.52;;
64208;SDS011;50527;52.414;13.226;2022-08-04T12:03:18;2.75;;;0.70;;
64208;SDS011;50527;52.414;13.226;2022-08-04T12:06:17;1.63;;;0.60;;
64208;SDS011;50527;52.414;13.226;2022-08-04T12:08:54;4.53;;;0.75;;
64208;SDS011;50527;52.414;13.226;2022-08-04T12:11:37;3.78;;;0.60;;
64208;SDS011;50527;52.414;13.226;2022-08-04T12:14:25;1.25;;;0.52;;
64208;SDS011;50527;52.414;13.226;2022-08-04T12:17:24;1.38;;;0.60;;
64208;SDS011;50527;52.414;13.226;2022-08-04T12:20:14;6.90;;;0.60;;
64208;SDS011;50527;52.414;13.226;2022-08-04T12:22:45;2.83;;;0.60;;
64208;SDS011;50527;52.414;13.226;2022-08-04T12:25:30;2.67;;;0.50;;
64208;SDS011;50527;52.414;13.226;2022-08-04T12:28:02;2.35;;;0.40;;
64208;SDS011;50527;52.414;13.226;2022-08-04T12:33:04;2.83;;;0.40;;
64208;SDS011;50527;52.414;13.226;2022-08-04T12:35:40;0.82;;;0.40;;
64208;SDS011;50527;52.414;13.226;2022-08-04T12:38:22;4.68;;;0.50;;
64208;SDS011;50527;52.414;13.226;2022-08-04T12:40:52;3.15;;;0.50;;
64208;SDS011;50527;52.414;13.226;2022-08-04T12:46:10;0.80;;;0.50;;
64208;SDS011;50527;52.414;13.226;2022-08-04T12:48:44;7.70;;;0.70;;
64208;SDS011;50527;52.414;13.226;2022-08-04T12:51:11;5.20;;;0.65;;
64208;SDS011;50527;52.414;13.226;2022-08-04T12:53:38;3.30;;;0.50;;
64208;SDS011;50527;52.414;13.226;2022-08-04T12:56:07;4.80;;;0.80;;
64208;SDS011;50527;52.414;13.226;2022-08-04T12:58:42;0.63;;;0.50;;
64208;SDS011;50527;52.414;13.226;2022-08-04T13:01:11;1.67;;;0.60;;
64208;SDS011;50527;52.414;13.226;2022-08-04T13:03:43;0.65;;;0.40;;
64208;SDS011;50527;52.414;13.226;2022-08-04T13:06:26;1.02;;;0.45;;
64208;SDS011;50527;52.414;13.226;2022-08-04T13:11:25;1.33;;;0.70;;
64208;SDS011;50527;52.414;13.226;2022-08-04T13:13:52;1.45;;;0.50;;
64208;SDS011;50527;52.414;13.226;2022-08-04T13:16:27;0.73;;;0.40;;
64208;SDS011;50527;52.414;13.226;2022-08-04T13:18:54;4.63;;;0.47;;
64208;SDS011;50527;52.414;13.226;2022-08-04T13:21:21;3.72;;;0.70;;
64208;SDS011;50527;52.414;13.226;2022-08-04T13:23:50;1.55;;;0.55;;
64208;SDS011;50527;52.414;13.226;2022-08-04T13:26:17;3.67;;;0.52;;
64208;SDS011;50527;52.414;13.226;2022-08-04T13:28:45;1.15;;;0.40;;
64208;SDS011;50527;52.414;13.226;2022-08-04T13:31:13;1.67;;;0.30;;
64208;SDS011;50527;52.414;13.226;2022-08-04T13:33:42;3.30;;;0.68;;
64208;SDS011;50527;52.414;13.226;2022-08-04T13:36:09;0.63;;;0.50;;
64208;SDS011;50527;52.414;13.226;2022-08-04T13:38:38;2.05;;;0.60;;
64208;SDS011;50527;52.414;13.226;2022-08-04T13:41:10;0.47;;;0.40;;
64208;SDS011;50527;52.414;13.226;2022-08-04T13:43:43;3.00;;;0.55;;
64208;SDS011;50527;52.414;13.226;2022-08-04T13:46:24;0.73;;;0.40;;
64208;SDS011;50527;52.414;13.226;2022-08-04T13:48:52;0.60;;;0.40;;
64208;SDS011;50527;52.414;13.226;2022-08-04T13:51:19;1.90;;;0.40;;
64208;SDS011;50527;52.414;13.226;2022-08-04T13:53:54;1.55;;;0.45;;
64208;SDS011;50527;52.414;13.226;2022-08-04T13:56:21;2.25;;;0.43;;
64208;SDS011;50527;52.414;13.226;2022-08-04T13:58:54;1.10;;;0.40;;
64208;SDS011;50527;52.414;13.226;2022-08-04T14:01:22;2.70;;;0.28;;
64208;SDS011;50527;52.414;13.226;2022-08-04T14:03:54;0.45;;;0.30;;
64208;SDS011;50527;52.414;13.226;2022-08-04T14:09:12;3.35;;;0.40;;
64208;SDS011;50527;52.414;13.226;2022-08-04T14:11:41;2.97;;;0.40;;
64208;SDS011;50527;52.414;13.226;2022-08-04T14:14:33;5.07;;;0.40;;
64208;SDS011;50527;52.414;13.226;2022-08-04T14:17:00;3.03;;;0.47;;
64208;SDS011;50527;52.414;13.226;2022-08-04T14:19:28;0.45;;;0.30;;
64208;SDS011;50527;52.414;13.226;2022-08-04T14:27:39;1.50;;;0.50;;
64208;SDS011;50527;52.414;13.226;2022-08-04T14:30:06;0.93;;;0.60;;
64208;SDS011;50527;52.414;13.226;2022-08-04T14:32:52;0.35;;;0.30;;
64208;SDS011;50527;52.414;13.226;2022-08-04T14:35:22;2.60;;;0.40;;
64208;SDS011;50527;52.414;13.226;2022-08-04T14:37:55;3.05;;;0.40;;
64208;SDS011;50527;52.414;13.226;2022-08-04T14:40:26;3.30;;;0.50;;
64208;SDS011;50527;52.414;13.226;2022-08-04T14:42:54;3.30;;;0.60;;
64208;SDS011;50527;52.414;13.226;2022-08-04T14:45:26;1.13;;;0.40;;
64208;SDS011;50527;52.414;13.226;2022-08-04T14:47:59;1.10;;;0.35;;
64208;SDS011;50527;52.414;13.226;2022-08-04T14:50:31;0.80;;;0.40;;
64208;SDS011;50527;52.414;13.226;2022-08-04T14:53:02;1.15;;;0.30;;
64208;SDS011;50527;52.414;13.226;2022-08-04T14:57:34;1.83;;;0.40;;
64208;SDS011;50527;52.414;13.226;2022-08-04T15:00:00;2.60;;;0.45;;
64208;SDS011;50527;52.414;13.226;2022-08-04T15:02:26;3.03;;;0.43;;
64208;SDS011;50527;52.414;13.226;2022-08-04T15:04:51;0.63;;;0.40;;
64208;SDS011;50527;52.414;13.226;2022-08-04T15:07:17;6.18;;;0.50;;
64208;SDS011;50527;52.414;13.226;2022-08-04T15:09:42;3.78;;;0.47;;
64208;SDS011;50527;52.414;13.226;2022-08-04T15:12:08;2.80;;;0.40;;
64208;SDS011;50527;52.414;13.226;2022-08-04T15:14:34;1.25;;;0.40;;
64208;SDS011;50527;52.414;13.226;2022-08-04T15:17:00;0.30;;;0.30;;
64208;SDS011;50527;52.414;13.226;2022-08-04T15:19:26;2.17;;;0.60;;
64208;SDS011;50527;52.414;13.226;2022-08-04T15:21:52;0.90;;;0.47;;
64208;SDS011;50527;52.414;13.226;2022-08-04T15:24:18;2.25;;;0.50;;
64208;SDS011;50527;52.414;13.226;2022-08-04T15:26:46;2.13;;;0.50;;
64208;SDS011;50527;52.414;13.226;2022-08-04T15:29:35;2.08;;;0.40;;
64208;SDS011;50527;52.414;13.226;2022-08-04T15:32:04;0.57;;;0.40;;
64208;SDS011;50527;52.414;13.226;2022-08-04T15:34:44;2.67;;;0.40;;
64208;SDS011;50527;52.414;13.226;2022-08-04T15:37:10;4.13;;;0.50;;
64208;SDS011;50527;52.414;13.226;2022-08-04T15:39:44;2.15;;;0.50;;
64208;SDS011;50527;52.414;13.226;2022-08-04T15:42:29;5.13;;;0.40;;
64208;SDS011;50527;52.414;13.226;2022-08-04T15:45:02;4.70;;;0.30;;
64208;SDS011;50527;52.414;13.226;2022-08-04T15:48:21;2.67;;;0.40;;
64208;SDS011;50527;52.414;13.226;2022-08-04T15:53:24;1.95;;;0.50;;
64208;SDS011;50527;52.414;13.226;2022-08-04T15:55:51;2.53;;;0.40;;
64208;SDS011;50527;52.414;13.226;2022-08-04T15:58:17;2.35;;;0.43;;
64208;SDS011;50527;52.414;13.226;2022-08-04T16:03:39;0.50;;;0.40;;
64208;SDS011;50527;52.414;13.226;2022-08-04T16:18:52;0.60;;;0.40;;
64208;SDS011;50527;52.414;13.226;2022-08-04T16:21:19;1.00;;;0.47;;
64208;SDS011;50527;52.414;13.226;2022-08-04T16:23:54;0.70;;;0.30;;
64208;SDS011;50527;52.414;13.226;2022-08-04T16:26:46;0.98;;;0.20;;
64208;SDS011;50527;52.414;13.226;2022-08-04T16:34:53;1.52;;;0.20;;
64208;SDS011;50527;52.414;13.226;2022-08-04T16:37:20;3.58;;;1.13;;
64208;SDS011;50527;52.414;13.226;2022-08-04T16:39:47;2.53;;;0.50;;
64208;SDS011;50527;52.414;13.226;2022-08-04T16:42:32;1.77;;;0.40;;
64208;SDS011;50527;52.414;13.226;2022-08-04T16:45:08;0.35;;;0.32;;
64208;SDS011;50527;52.414;13.226;2022-08-04T16:50:20;1.75;;;0.40;;
64208;SDS011;50527;52.414;13.226;2022-08-04T16:52:50;1.73;;;0.40;;
64208;SDS011;50527;52.414;13.226;2022-08-04T16:55:24;1.20;;;0.35;;
64208;SDS011;50527;52.414;13.226;2022-08-04T16:57:53;0.50;;;0.35;;
64208;SDS011;50527;52.414;13.226;2022-08-04T17:00:53;0.85;;;0.43;;
64208;SDS011;50527;52.414;13.226;2022-08-04T17:03:12;3.72;;;0.30;;
64208;SDS011;50527;52.414;13.226;2022-08-04T17:05:38;2.80;;;0.50;;
64208;SDS011;50527;52.414;13.226;2022-08-04T17:08:04;1.60;;;0.40;;
64208;SDS011;50527;52.414;13.226;2022-08-04T17:12:57;1.58;;;0.40;;
64208;SDS011;50527;52.414;13.226;2022-08-04T17:15:23;0.52;;;0.25;;
64208;SDS011;50527;52.414;13.226;2022-08-04T17:17:49;5.40;;;0.40;;
64208;SDS011;50527;52.414;13.226;2022-08-04T17:20:15;1.25;;;0.50;;
64208;SDS011;50527;52.414;13.226;2022-08-04T17:22:41;3.50;;;0.32;;
64208;SDS011;50527;52.414;13.226;2022-08-04T17:25:07;6.43;;;0.50;;
64208;SDS011;50527;52.414;13.226;2022-08-04T17:27:33;5.25;;;0.60;;
64208;SDS011;50527;52.414;13.226;2022-08-04T17:29:59;2.90;;;0.50;;
64208;SDS011;50527;52.414;13.226;2022-08-04T17:32:25;2.10;;;0.55;;
64208;SDS011;50527;52.414;13.226;2022-08-04T17:34:52;3.10;;;0.77;;
64208;SDS011;50527;52.414;13.226;2022-08-04T17:37:22;3.17;;;0.65;;
64208;SDS011;50527;52.414;13.226;2022-08-04T17:39:51;2.13;;;0.63;;
64208;SDS011;50527;52.414;13.226;2022-08-04T17:42:31;1.45;;;0.50;;
64208;SDS011;50527;52.414;13.226;2022-08-04T17:45:09;2.25;;;0.70;;
64208;SDS011;50527;52.414;13.226;2022-08-04T17:47:49;1.10;;;0.30;;
64208;SDS011;50527;52.414;13.226;2022-08-04T17:50:24;2.37;;;0.50;;
64208;SDS011;50527;52.414;13.226;2022-08-04T17:53:03;1.90;;;0.63;;
64208;SDS011;50527;52.414;13.226;2022-08-04T17:55:42;3.30;;;0.75;;
64208;SDS011;50527;52.414;13.226;2022-08-04T18:00:42;4.85;;;0.80;;
64208;SDS011;50527;52.414;13.226;2022-08-04T18:03:07;2.33;;;0.90;;
64208;SDS011;50527;52.414;13.226;2022-08-04T18:05:47;1.92;;;0.70;;
64208;SDS011;50527;52.414;13.226;2022-08-04T18:08:14;5.22;;;0.70;;
64208;SDS011;50527;52.414;13.226;2022-08-04T18:10:40;4.78;;;0.75;;
64208;SDS011;50527;52.414;13.226;2022-08-04T18:13:08;3.30;;;0.68;;
64208;SDS011;50527;52.414;13.226;2022-08-04T18:15:33;2.97;;;0.63;;
64208;SDS011;50527;52.414;13.226;2022-08-04T18:17:59;7.28;;;0.95;;
64208;SDS011;50527;52.414;13.226;2022-08-04T18:20:41;3.22;;;0.70;;
64208;SDS011;50527;52.414;13.226;2022-08-04T18:23:10;3.00;;;0.60;;
64208;SDS011;50527;52.414;13.226;2022-08-04T18:25:37;4.70;;;0.60;;
64208;SDS011;50527;52.414;13.226;2022-08-04T18:28:03;3.05;;;0.70;;
64208;SDS011;50527;52.414;13.226;2022-08-04T18:30:33;1.35;;;0.80;;